Nashville, TN

14:07 CST le 20 décembre 2014 (GMT -0600)
Bates Nursery | Change Station
CLOSE
Current Station
Stations météorologiques personnelles
Location: Nashville, TN
Altitude: 459 ft
Stations météo à proximité

Alt. 459 ft 36.25 °N, 86.82 °W | Updated 9 seconds ago

Nuageux
Nuageux
46.3 ° F
Paraît 46 ° F
N
0.2
Vent Variable Vent de SSE
Gusts 1.8 mph

Aujourd'hui
Haut(e) -- | Bas -- ° F
--% Risque de précip.
Hier
Haut(e) -- | Bas -- ° F
Precip. -- pouce
6:53 AM 4:35 PM
Lune descendante, 2% visible
Pression 30.23 pouce
Visibilité 10.0 Miles terrestres
Nuages Couvert 5500 ft
Refroidissement éolien 46 ° F
Point de rosée 32 ° F
Humidité 57%
Précipitations 0.00 pouce
Profondeur de la couche neigeuse Non disponible.
UV 1 sur 12
Pollen .10 sur 12
Qualité de l'air Non disponible.
Flu Activity Non disponible.
METAR KBNA 201953Z 31005KT 10SM OVC055 07/M03 A3023

More Conditions Fewer Conditions

Pression 30.23 pouce
Visibilité 10.0 Miles terrestres
Nuages Couvert 5500 ft
Refroidissement éolien 46 ° F
Point de rosée 32 ° F
Humidité 57%
Précipitations 0.00 pouce
Profondeur de la couche neigeuse Non disponible.
UV 1 sur 12
Pollen .10 sur 12
Qualité de l'air Non disponible.
Flu Activity Non disponible.
METAR KBNA 201953Z 31005KT 10SM OVC055 07/M03 A3023

More Conditions Fewer Conditions

10-Day Weather Forecast

Almanac

Astronomie

Dec. 20, 2014 Lever Coucher
Temps réel
Crépuscule civil
Crépuscule nautique
Crépuscule astronomique
Lune
Durée de lumière visible
Longueur du jour
Tomorrow will be .
, % of the Moon is Illuminated

Extrêmes aujourd'hui

State Highs State Lows

Community

WunderPhotos

Upload Photos

1,779,267 Photos téléchargées !

WunderBlogs® & News

Nearby

Qualité de l'air

  Qualité de l'air Indice de la qualité de l'air Polluant
Not available.

Épaisseur de neige

Station Depth Altitude

Activité sismique

Ville Distance Mag. Time & Date
Minimum magnitude displayed is 2.5.

Températures des eaux côtières

Lieu Température

Stations météo à proximité